createdAt,value
2023-05-10T00:02:12.352Z,13.10
2023-05-10T00:04:42.112Z,13.20
2023-05-10T00:07:08.982Z,13.20
2023-05-10T00:09:35.822Z,13.10
2023-05-10T00:12:02.732Z,13.10
2023-05-10T00:14:29.833Z,13.10
2023-05-10T00:16:56.771Z,13.20
2023-05-10T00:19:23.727Z,13.10
2023-05-10T00:21:50.677Z,13.10
2023-05-10T00:24:17.666Z,13.10
2023-05-10T00:26:44.689Z,13.10
2023-05-10T00:29:12.286Z,13.10
2023-05-10T00:31:39.284Z,13.00
2023-05-10T00:34:06.155Z,13.00
2023-05-10T00:36:33.265Z,13.00
2023-05-10T00:39:00.935Z,13.00
2023-05-10T00:41:27.913Z,13.00
2023-05-10T00:43:55.480Z,13.00
2023-05-10T00:46:23.027Z,13.00
2023-05-10T00:48:50.323Z,13.10
2023-05-10T00:51:17.466Z,13.10
2023-05-10T00:53:47.234Z,13.00
2023-05-10T00:56:14.310Z,13.00
2023-05-10T00:58:42.127Z,13.00
2023-05-10T01:01:10.409Z,13.00
2023-05-10T01:03:37.978Z,13.00
2023-05-10T01:06:05.188Z,13.00
2023-05-10T01:08:32.438Z,13.00
2023-05-10T01:10:59.687Z,13.00
2023-05-10T01:13:37.240Z,13.10
2023-05-10T01:16:05.225Z,13.10
2023-05-10T01:18:36.204Z,13.00
2023-05-10T01:21:15.130Z,13.10
2023-05-10T01:24:19.886Z,13.10
2023-05-10T01:27:05.567Z,13.10
2023-05-10T01:29:58.329Z,13.10
2023-05-10T01:32:45.734Z,13.10
2023-05-10T01:35:29.513Z,13.10
2023-05-10T01:38:14.233Z,13.00
2023-05-10T01:40:49.631Z,13.00
2023-05-10T01:43:24.088Z,13.00
2023-05-10T01:46:00.715Z,13.00
2023-05-10T01:48:30.242Z,13.00
2023-05-10T01:50:59.194Z,13.00
2023-05-10T01:56:49.918Z,13.00
2023-05-10T01:59:19.762Z,13.00
2023-05-10T02:01:48.976Z,13.00
2023-05-10T02:04:19.315Z,13.00
2023-05-10T02:06:49.024Z,13.00
2023-05-10T02:09:17.303Z,13.00
2023-05-10T02:11:45.272Z,13.00
2023-05-10T02:14:13.305Z,13.00
2023-05-10T02:16:41.660Z,12.90
2023-05-10T02:19:09.926Z,12.90
2023-05-10T02:21:38.567Z,12.90
2023-05-10T02:24:07.202Z,12.90
2023-05-10T02:26:36.295Z,12.80
2023-05-10T02:29:04.519Z,12.80
2023-05-10T02:31:35.924Z,12.80
2023-05-10T02:34:05.069Z,12.80
2023-05-10T02:36:33.356Z,12.70
2023-05-10T02:39:03.110Z,12.70
2023-05-10T02:41:33.361Z,12.80
2023-05-10T02:44:05.330Z,12.70
2023-05-10T02:46:32.853Z,12.70
2023-05-10T02:48:59.709Z,12.70
2023-05-10T02:51:35.800Z,12.70
2023-05-10T02:54:14.642Z,12.70
2023-05-10T02:56:52.775Z,12.60
2023-05-10T02:59:19.738Z,12.60
2023-05-10T03:01:46.847Z,12.60
2023-05-10T03:04:14.326Z,12.50
2023-05-10T03:06:41.594Z,12.50
2023-05-10T03:09:10.440Z,12.40
2023-05-10T03:11:58.319Z,12.40
2023-05-10T03:14:32.857Z,12.30
2023-05-10T03:17:10.294Z,12.30
2023-05-10T03:19:50.813Z,12.30
2023-05-10T03:22:31.572Z,12.30
2023-05-10T03:25:01.269Z,12.30
2023-05-10T03:27:32.150Z,12.20
2023-05-10T03:30:03.516Z,12.20
2023-05-10T03:32:35.424Z,12.30
2023-05-10T03:35:08.900Z,12.30
2023-05-10T03:37:36.870Z,12.30
2023-05-10T03:40:04.705Z,12.30
2023-05-10T03:42:34.193Z,12.30
2023-05-10T03:45:01.055Z,12.40
2023-05-10T03:47:28.080Z,12.40
2023-05-10T03:49:54.904Z,12.40
2023-05-10T03:52:21.754Z,12.30
2023-05-10T03:54:48.817Z,12.40
2023-05-10T03:57:16.113Z,12.40
2023-05-10T03:59:43.024Z,12.40
2023-05-10T04:02:09.970Z,12.40
2023-05-10T04:04:37.225Z,12.40
2023-05-10T04:07:04.620Z,12.40
2023-05-10T04:09:31.689Z,12.40
2023-05-10T04:12:00.018Z,12.40
2023-05-10T04:14:27.126Z,12.40
2023-05-10T04:16:54.013Z,12.40
2023-05-10T04:19:21.416Z,12.40
2023-05-10T04:21:48.374Z,12.40
2023-05-10T04:24:15.845Z,12.40
2023-05-10T04:26:42.693Z,12.40
2023-05-10T04:29:09.857Z,12.40
2023-05-10T04:31:37.406Z,12.40
2023-05-10T04:34:04.280Z,12.40
2023-05-10T04:36:34.328Z,12.40
2023-05-10T04:39:01.204Z,12.40
2023-05-10T04:41:28.141Z,12.40
2023-05-10T04:43:55.154Z,12.40
2023-05-10T04:46:22.030Z,12.40
2023-05-10T04:48:48.901Z,12.50
2023-05-10T04:51:15.874Z,12.50
2023-05-10T04:53:46.468Z,12.50
2023-05-10T04:56:18.340Z,12.50
2023-05-10T04:58:45.456Z,12.50
2023-05-10T05:01:18.506Z,12.60
2023-05-10T05:03:45.404Z,12.60
2023-05-10T05:06:12.343Z,12.70
2023-05-10T05:08:41.374Z,12.70
2023-05-10T05:11:08.136Z,12.70
2023-05-10T05:13:35.096Z,12.70
2023-05-10T05:16:03.743Z,12.70
2023-05-10T05:18:31.085Z,12.70
2023-05-10T05:20:57.891Z,12.70
2023-05-10T05:23:28.074Z,12.70
2023-05-10T05:25:56.253Z,12.80
2023-05-10T05:28:23.209Z,12.80
2023-05-10T05:30:50.002Z,12.80
2023-05-10T05:33:16.901Z,12.80
2023-05-10T05:35:51.524Z,12.80
2023-05-10T05:38:18.557Z,12.80
2023-05-10T05:40:46.540Z,12.80
2023-05-10T05:43:14.638Z,12.80
2023-05-10T05:45:41.636Z,12.80
2023-05-10T05:48:08.475Z,12.80
2023-05-10T05:50:35.357Z,12.80
2023-05-10T05:53:02.327Z,12.80
2023-05-10T05:55:30.674Z,12.80
2023-05-10T05:57:57.462Z,12.80
2023-05-10T06:00:24.829Z,12.80
2023-05-10T06:02:51.915Z,12.70
2023-05-10T06:05:19.885Z,12.70
2023-05-10T06:07:47.059Z,12.70
2023-05-10T06:10:13.902Z,12.80
2023-05-10T06:12:43.498Z,12.80
2023-05-10T06:15:10.985Z,12.80
2023-05-10T06:17:37.861Z,12.80
2023-05-10T06:20:05.124Z,12.70
2023-05-10T06:22:31.987Z,12.70
2023-05-10T06:24:59.098Z,12.70
2023-05-10T06:27:25.968Z,12.70
2023-05-10T06:30:02.036Z,12.70
2023-05-10T06:32:33.060Z,12.70
2023-05-10T06:34:59.897Z,12.70
2023-05-10T06:37:26.741Z,12.70
2023-05-10T06:39:53.503Z,12.70
2023-05-10T06:42:23.262Z,12.70
2023-05-10T06:44:50.135Z,12.70
2023-05-10T06:47:16.909Z,12.70
2023-05-10T06:49:46.808Z,12.70
2023-05-10T06:52:13.660Z,12.70
2023-05-10T06:54:40.462Z,12.70
2023-05-10T06:57:16.111Z,12.70
2023-05-10T06:59:53.551Z,12.70
2023-05-10T07:02:20.331Z,12.80
2023-05-10T07:04:48.385Z,12.80
2023-05-10T07:07:18.187Z,12.90
2023-05-10T07:09:45.922Z,12.90
2023-05-10T07:12:14.677Z,12.90
2023-05-10T07:14:45.095Z,12.90
2023-05-10T07:17:12.007Z,12.90
2023-05-10T07:19:38.841Z,12.90
2023-05-10T07:22:05.696Z,12.90
2023-05-10T07:24:34.065Z,13.00
2023-05-10T07:27:01.114Z,13.00
2023-05-10T07:29:28.319Z,12.90
2023-05-10T07:31:57.935Z,12.90
2023-05-10T07:34:26.610Z,13.00
2023-05-10T07:36:53.944Z,13.00
2023-05-10T07:39:27.446Z,13.00
2023-05-10T07:41:56.046Z,13.00
2023-05-10T07:44:23.047Z,13.00
2023-05-10T07:46:50.211Z,13.00
2023-05-10T07:49:17.214Z,13.00
2023-05-10T07:51:44.359Z,13.00
2023-05-10T07:54:11.253Z,13.00
2023-05-10T07:56:38.150Z,13.10
2023-05-10T07:59:06.078Z,13.20
2023-05-10T08:01:34.313Z,13.30
2023-05-10T08:04:02.825Z,13.30
2023-05-10T08:06:31.020Z,13.30
2023-05-10T08:09:04.400Z,13.20
2023-05-10T08:11:32.451Z,13.20
2023-05-10T08:14:00.686Z,13.20
2023-05-10T08:16:27.761Z,13.20
2023-05-10T08:18:56.436Z,13.30
2023-05-10T08:21:23.600Z,13.30
2023-05-10T08:23:50.894Z,13.30
2023-05-10T08:26:17.944Z,13.30
2023-05-10T08:28:44.923Z,13.40
2023-05-10T08:31:11.925Z,13.40
2023-05-10T08:33:38.831Z,13.40
2023-05-10T08:36:05.745Z,13.50
2023-05-10T08:38:32.590Z,13.50
2023-05-10T08:41:00.596Z,13.50
2023-05-10T08:43:30.209Z,13.70
2023-05-10T08:45:58.214Z,13.70
2023-05-10T08:48:25.919Z,13.70
2023-05-10T08:50:57.597Z,13.70
2023-05-10T08:53:27.633Z,13.70
2023-05-10T08:55:55.022Z,13.70
2023-05-10T08:58:22.032Z,13.70
2023-05-10T09:00:51.939Z,13.80
2023-05-10T09:03:19.328Z,13.80
2023-05-10T09:05:49.258Z,13.70
2023-05-10T09:08:19.913Z,13.70
2023-05-10T09:10:53.290Z,13.70
2023-05-10T09:13:23.014Z,13.70
2023-05-10T09:15:50.486Z,13.70
2023-05-10T09:18:17.599Z,13.70
2023-05-10T09:20:44.497Z,13.70
2023-05-10T09:23:11.436Z,13.80
2023-05-10T09:25:39.744Z,13.80
2023-05-10T09:28:10.716Z,13.90
2023-05-10T09:30:38.006Z,13.90
2023-05-10T09:33:05.096Z,14.00
2023-05-10T09:35:41.232Z,14.10
2023-05-10T09:38:08.195Z,14.20
2023-05-10T09:40:35.077Z,14.20
2023-05-10T09:43:05.337Z,14.40
2023-05-10T09:45:37.808Z,14.50
2023-05-10T09:48:06.393Z,14.70
2023-05-10T09:50:33.495Z,14.80
2023-05-10T09:53:03.863Z,14.80
2023-05-10T09:55:45.889Z,14.80
2023-05-10T09:58:13.945Z,14.90
2023-05-10T10:00:45.651Z,14.90
2023-05-10T10:03:17.773Z,14.90
2023-05-10T10:05:45.552Z,15.00
2023-05-10T10:08:13.720Z,15.00
2023-05-10T10:10:43.887Z,15.10
2023-05-10T10:13:10.756Z,15.10
2023-05-10T10:15:37.865Z,15.10
2023-05-10T10:18:06.599Z,15.20
2023-05-10T10:20:33.699Z,15.30
2023-05-10T10:23:00.654Z,15.40
2023-05-10T10:25:27.730Z,15.40
2023-05-10T10:27:54.623Z,15.40
2023-05-10T10:30:44.650Z,15.50
2023-05-10T10:33:30.540Z,15.50
2023-05-10T10:36:03.686Z,15.50
2023-05-10T10:39:00.325Z,15.60
2023-05-10T10:41:31.838Z,15.60
2023-05-10T10:44:23.396Z,15.40
2023-05-10T10:47:10.247Z,15.30
2023-05-10T10:49:43.196Z,15.20
2023-05-10T10:52:32.209Z,15.20
2023-05-10T10:55:05.177Z,15.10
2023-05-10T10:57:48.406Z,15.20
2023-05-10T11:00:22.424Z,15.20
2023-05-10T11:02:52.617Z,15.30
2023-05-10T11:05:38.140Z,15.30
2023-05-10T11:08:22.913Z,15.40
2023-05-10T11:11:07.773Z,15.40
2023-05-10T11:14:04.366Z,15.50
2023-05-10T11:16:45.097Z,15.50
2023-05-10T11:19:14.320Z,15.60
2023-05-10T11:21:54.742Z,15.50
2023-05-10T11:24:27.892Z,15.40
2023-05-10T11:26:55.104Z,15.40
2023-05-10T11:29:22.191Z,15.40
2023-05-10T11:31:50.598Z,15.40
2023-05-10T11:34:32.217Z,15.50
2023-05-10T11:36:59.492Z,15.70
2023-05-10T11:39:34.454Z,15.80
2023-05-10T11:42:01.511Z,15.90
2023-05-10T11:44:34.515Z,16.20
2023-05-10T11:47:04.568Z,16.40
2023-05-10T11:49:31.585Z,16.50
2023-05-10T11:52:06.563Z,16.60
2023-05-10T11:54:36.181Z,16.70
2023-05-10T11:57:05.593Z,16.80
2023-05-10T11:59:32.626Z,16.90
2023-05-10T12:01:59.641Z,16.90
2023-05-10T12:04:27.324Z,16.90
2023-05-10T12:06:54.262Z,17.00
2023-05-10T12:09:35.520Z,16.90
2023-05-10T12:12:08.457Z,16.90
2023-05-10T12:14:36.792Z,16.90
2023-05-10T12:17:03.858Z,16.90
2023-05-10T12:19:39.312Z,16.80
2023-05-10T12:22:07.154Z,16.80
2023-05-10T12:24:39.251Z,16.80
2023-05-10T12:27:09.069Z,16.80
2023-05-10T12:29:36.174Z,16.80
2023-05-10T12:32:03.522Z,16.80
2023-05-10T12:34:35.264Z,16.80
2023-05-10T12:37:03.008Z,16.90
2023-05-10T12:39:43.452Z,17.10
2023-05-10T12:42:10.828Z,17.40
2023-05-10T12:44:37.612Z,17.70
2023-05-10T12:47:04.410Z,17.90
2023-05-10T12:49:31.263Z,17.90
2023-05-10T12:52:00.413Z,17.70
2023-05-10T12:54:30.382Z,17.70
2023-05-10T12:56:57.148Z,17.40
2023-05-10T12:59:24.018Z,17.40
2023-05-10T13:01:52.728Z,17.20
2023-05-10T13:04:19.683Z,17.10
2023-05-10T13:06:46.641Z,16.90
2023-05-10T13:09:13.394Z,16.60
2023-05-10T13:11:41.096Z,16.30
2023-05-10T13:14:07.905Z,16.00
2023-05-10T13:16:34.781Z,15.80
2023-05-10T13:19:01.546Z,15.70
2023-05-10T13:21:28.798Z,15.60
2023-05-10T13:23:55.620Z,15.40
2023-05-10T13:26:22.345Z,15.40
2023-05-10T13:28:49.740Z,15.30
2023-05-10T13:31:16.691Z,15.20
2023-05-10T13:33:43.712Z,15.10
2023-05-10T13:36:10.699Z,15.10
2023-05-10T13:38:37.700Z,15.00
2023-05-10T13:41:04.659Z,14.90
2023-05-10T13:43:31.640Z,14.80
2023-05-10T13:45:58.431Z,14.70
2023-05-10T13:48:30.824Z,14.70
2023-05-10T13:50:57.566Z,14.60
2023-05-10T13:53:24.621Z,14.70
2023-05-10T13:55:51.709Z,14.70
2023-05-10T13:58:18.541Z,14.60
2023-05-10T14:00:45.246Z,14.60
2023-05-10T14:03:13.235Z,14.50
2023-05-10T14:05:40.176Z,14.50
2023-05-10T14:08:07.255Z,14.50
2023-05-10T14:10:34.209Z,14.40
2023-05-10T14:13:01.170Z,14.40
2023-05-10T14:15:27.996Z,14.40
2023-05-10T14:17:55.157Z,14.50
2023-05-10T14:20:22.184Z,14.50
2023-05-10T14:22:50.131Z,14.50
2023-05-10T14:25:17.160Z,14.40
2023-05-10T14:27:44.328Z,14.40
2023-05-10T14:30:11.633Z,14.40
2023-05-10T14:32:38.659Z,14.40
2023-05-10T14:35:06.951Z,14.50
2023-05-10T14:37:36.070Z,14.40
2023-05-10T14:40:04.995Z,14.50
2023-05-10T14:42:32.326Z,14.50
2023-05-10T14:44:59.241Z,14.50
2023-05-10T14:47:26.471Z,14.50
2023-05-10T14:49:53.330Z,14.50
2023-05-10T14:52:20.228Z,14.50
2023-05-10T14:54:49.162Z,14.60
2023-05-10T14:57:16.181Z,14.60
2023-05-10T14:59:43.133Z,14.60
2023-05-10T15:02:11.418Z,14.70
2023-05-10T15:04:38.921Z,14.70
2023-05-10T15:07:06.687Z,14.80
2023-05-10T15:09:33.466Z,14.90
2023-05-10T15:12:00.793Z,14.90
2023-05-10T15:14:27.550Z,15.00
2023-05-10T15:16:55.565Z,15.00
2023-05-10T15:19:22.316Z,15.10
2023-05-10T15:21:49.127Z,15.10
2023-05-10T15:24:15.974Z,15.20
2023-05-10T15:26:42.923Z,15.30
2023-05-10T15:29:09.704Z,15.30
2023-05-10T15:31:36.963Z,15.30
2023-05-10T15:34:03.935Z,15.30
2023-05-10T15:36:30.765Z,15.30
2023-05-10T15:38:57.661Z,15.40
2023-05-10T15:41:25.716Z,15.50
2023-05-10T15:43:54.175Z,15.60
2023-05-10T15:46:22.135Z,15.70
2023-05-10T15:48:49.016Z,15.80
2023-05-10T15:51:41.598Z,15.80
2023-05-10T15:54:08.617Z,15.90
2023-05-10T15:56:36.157Z,15.90
2023-05-10T15:59:03.704Z,15.90
2023-05-10T16:01:34.457Z,15.90
2023-05-10T16:04:03.075Z,16.00
2023-05-10T16:06:29.854Z,15.90
2023-05-10T16:08:56.697Z,15.90
2023-05-10T16:11:23.657Z,15.90
2023-05-10T16:13:50.716Z,15.80
2023-05-10T16:16:18.227Z,15.80
2023-05-10T16:18:45.195Z,15.70
2023-05-10T16:21:12.068Z,15.70
2023-05-10T16:23:39.318Z,15.70
2023-05-10T16:26:06.085Z,15.60
2023-05-10T16:28:33.043Z,15.60
2023-05-10T16:30:59.889Z,15.60
2023-05-10T16:33:26.912Z,15.60
2023-05-10T16:35:53.845Z,15.50
2023-05-10T16:38:21.821Z,15.50
2023-05-10T16:40:48.856Z,15.60
2023-05-10T16:43:15.856Z,15.50
2023-05-10T16:45:42.786Z,15.60
2023-05-10T16:48:09.741Z,15.60
2023-05-10T16:50:36.678Z,15.70
2023-05-10T16:53:03.560Z,15.70
2023-05-10T16:55:30.755Z,15.80
2023-05-10T16:58:00.500Z,15.90
2023-05-10T17:00:27.656Z,15.90
2023-05-10T17:02:55.081Z,16.00
2023-05-10T17:05:22.794Z,16.00
2023-05-10T17:07:50.833Z,16.10
2023-05-10T17:10:19.242Z,16.10
2023-05-10T17:12:51.892Z,16.10
2023-05-10T17:15:19.426Z,16.10
2023-05-10T17:17:50.193Z,16.00
2023-05-10T17:20:17.134Z,16.00
2023-05-10T17:22:44.066Z,16.00
2023-05-10T17:25:11.297Z,16.00
2023-05-10T17:27:38.097Z,15.90
2023-05-10T17:30:08.060Z,15.90
2023-05-10T17:32:35.068Z,15.90
2023-05-10T17:35:03.839Z,15.90
2023-05-10T17:37:30.953Z,15.90
2023-05-10T17:39:57.846Z,15.90
2023-05-10T17:42:24.606Z,15.90
2023-05-10T17:44:51.403Z,15.80
2023-05-10T17:47:18.644Z,15.90
2023-05-10T17:49:45.512Z,15.80
2023-05-10T17:52:12.310Z,16.00
2023-05-10T17:54:39.174Z,15.90
2023-05-10T17:57:12.101Z,16.00
2023-05-10T17:59:38.838Z,16.00
2023-05-10T18:02:05.867Z,15.90
2023-05-10T18:04:35.530Z,15.90
2023-05-10T18:07:02.825Z,15.80
2023-05-10T18:09:30.003Z,15.80
2023-05-10T18:11:56.906Z,15.70
2023-05-10T18:14:39.101Z,15.70
2023-05-10T18:17:07.841Z,15.60
2023-05-10T18:19:35.025Z,15.60
2023-05-10T18:22:01.972Z,15.50
2023-05-10T18:24:39.688Z,15.50
2023-05-10T18:27:11.268Z,15.50
2023-05-10T18:29:41.264Z,15.50
2023-05-10T18:32:08.189Z,15.50
2023-05-10T18:34:35.309Z,15.50
2023-05-10T18:37:07.360Z,15.50
2023-05-10T18:39:34.734Z,15.40
2023-05-10T18:42:02.191Z,15.40
2023-05-10T18:44:29.397Z,15.30
2023-05-10T18:46:56.613Z,15.30
2023-05-10T18:49:24.088Z,15.20
2023-05-10T18:51:51.244Z,15.20
2023-05-10T18:58:00.815Z,15.20
2023-05-10T19:00:53.798Z,15.10
2023-05-10T19:03:24.649Z,15.00
2023-05-10T19:05:51.603Z,15.00
2023-05-10T19:08:18.803Z,14.90
2023-05-10T19:10:46.041Z,14.90
2023-05-10T19:13:14.863Z,14.80
2023-05-10T19:15:42.025Z,14.80
2023-05-10T19:18:09.761Z,14.70
2023-05-10T19:20:40.221Z,14.70
2023-05-10T19:23:10.374Z,14.60
2023-05-10T19:25:37.431Z,14.50
2023-05-10T19:28:04.670Z,14.50
2023-05-10T19:30:32.148Z,14.50
2023-05-10T19:32:59.350Z,14.40
2023-05-10T19:35:26.364Z,14.40
2023-05-10T19:37:53.690Z,14.40
2023-05-10T19:40:20.627Z,14.40
2023-05-10T19:42:48.102Z,14.40
2023-05-10T19:45:15.761Z,14.40
2023-05-10T19:47:43.380Z,14.40
2023-05-10T19:50:12.270Z,14.40
2023-05-10T19:52:39.346Z,14.40
2023-05-10T19:55:09.998Z,14.20
2023-05-10T19:57:37.476Z,14.20
2023-05-10T20:00:05.102Z,14.20
2023-05-10T20:02:38.045Z,14.20
2023-05-10T20:05:05.186Z,14.10
2023-05-10T20:07:32.075Z,14.10
2023-05-10T20:09:58.943Z,14.10
2023-05-10T20:12:25.820Z,14.10
2023-05-10T20:14:53.079Z,14.10
2023-05-10T20:17:20.102Z,14.10
2023-05-10T20:19:47.058Z,14.00
2023-05-10T20:22:15.217Z,14.10
2023-05-10T20:24:42.031Z,14.10
2023-05-10T20:27:08.942Z,14.00
2023-05-10T20:29:35.875Z,14.10
2023-05-10T20:32:02.890Z,14.10
2023-05-10T20:34:30.922Z,14.10
2023-05-10T20:36:58.558Z,14.10
2023-05-10T20:39:26.071Z,14.10
2023-05-10T20:41:54.680Z,14.20
2023-05-10T20:44:21.663Z,14.10
2023-05-10T20:46:48.590Z,14.20
2023-05-10T20:49:15.581Z,14.20
2023-05-10T20:51:42.598Z,14.20
2023-05-10T20:54:09.492Z,14.20
2023-05-10T20:56:36.287Z,14.20
2023-05-10T20:59:03.137Z,14.20
2023-05-10T21:01:32.185Z,14.20
2023-05-10T21:03:59.166Z,14.20
2023-05-10T21:06:26.280Z,14.20
2023-05-10T21:08:53.146Z,14.20
2023-05-10T21:11:20.149Z,14.20
2023-05-10T21:13:48.158Z,14.20
2023-05-10T21:16:15.147Z,14.10
2023-05-10T21:18:42.205Z,14.10
2023-05-10T21:21:09.063Z,14.10
2023-05-10T21:23:36.058Z,14.20
2023-05-10T21:26:05.944Z,14.10
2023-05-10T21:28:33.003Z,14.10
2023-05-10T21:31:06.697Z,14.10
2023-05-10T21:33:33.611Z,14.10
2023-05-10T21:36:00.738Z,14.10
2023-05-10T21:38:28.572Z,14.10
2023-05-10T21:40:55.721Z,14.10
2023-05-10T21:43:22.629Z,14.00
2023-05-10T21:45:49.554Z,14.00
2023-05-10T21:48:19.136Z,14.00
2023-05-10T21:50:47.849Z,14.00
2023-05-10T21:53:14.878Z,13.90
2023-05-10T21:55:42.022Z,13.90
2023-05-10T21:58:08.901Z,13.90
2023-05-10T22:00:35.836Z,13.90
2023-05-10T22:03:02.894Z,13.90
2023-05-10T22:05:29.905Z,13.90
2023-05-10T22:07:56.862Z,13.80
2023-05-10T22:10:26.621Z,13.80
2023-05-10T22:12:53.717Z,13.80
2023-05-10T22:15:20.581Z,13.80
2023-05-10T22:17:47.492Z,13.80
2023-05-10T22:20:14.733Z,13.80
2023-05-10T22:22:41.777Z,13.90
2023-05-10T22:25:08.949Z,13.90
2023-05-10T22:27:36.617Z,13.80
2023-05-10T22:30:06.528Z,13.80
2023-05-10T22:32:33.545Z,13.70
2023-05-10T22:35:00.529Z,13.70
2023-05-10T22:37:27.646Z,13.70
2023-05-10T22:39:54.539Z,13.60
2023-05-10T22:42:21.390Z,13.60
2023-05-10T22:44:48.325Z,13.60
2023-05-10T22:47:16.328Z,13.50
2023-05-10T22:49:43.682Z,13.50
2023-05-10T22:52:10.989Z,13.50
2023-05-10T22:54:37.925Z,13.40
2023-05-10T22:57:04.932Z,13.40
2023-05-10T22:59:31.893Z,13.40
2023-05-10T23:01:58.850Z,13.40
2023-05-10T23:04:25.976Z,13.30
2023-05-10T23:06:55.908Z,13.30
2023-05-10T23:09:23.031Z,13.30
2023-05-10T23:11:49.857Z,13.30
2023-05-10T23:14:17.400Z,13.30
2023-05-10T23:16:44.540Z,13.30
2023-05-10T23:19:11.497Z,13.30
2023-05-10T23:21:38.806Z,13.20
2023-05-10T23:24:06.353Z,13.20
2023-05-10T23:26:33.206Z,13.30
2023-05-10T23:29:00.789Z,13.20
2023-05-10T23:31:27.924Z,13.20
2023-05-10T23:33:55.002Z,13.20
2023-05-10T23:36:21.897Z,13.20
2023-05-10T23:38:48.738Z,13.30
2023-05-10T23:41:15.640Z,13.30
2023-05-10T23:43:42.479Z,13.30
2023-05-10T23:46:09.374Z,13.30
2023-05-10T23:48:38.196Z,13.30
2023-05-10T23:51:05.228Z,13.30
2023-05-10T23:53:32.028Z,13.30
2023-05-10T23:55:58.980Z,13.30
2023-05-10T23:58:25.945Z,13.30
